sensor_id;sensor_type;location;lat;lon;timestamp;temperature;humidity
62809;DHT22;48848;39.002;-94.584;2022-07-04T00:00:45;21.80;43.00
62809;DHT22;48848;39.002;-94.584;2022-07-04T00:03:11;21.90;43.70
62809;DHT22;48848;39.002;-94.584;2022-07-04T00:05:38;21.90;43.60
62809;DHT22;48848;39.002;-94.584;2022-07-04T00:08:04;21.80;44.40
62809;DHT22;48848;39.002;-94.584;2022-07-04T00:10:30;21.90;43.50
62809;DHT22;48848;39.002;-94.584;2022-07-04T00:12:57;21.90;43.70
62809;DHT22;48848;39.002;-94.584;2022-07-04T00:15:23;21.80;44.40
62809;DHT22;48848;39.002;-94.584;2022-07-04T00:17:50;21.90;44.40
62809;DHT22;48848;39.002;-94.584;2022-07-04T00:20:16;21.90;44.60
62809;DHT22;48848;39.002;-94.584;2022-07-04T00:22:43;21.90;44.80
62809;DHT22;48848;39.002;-94.584;2022-07-04T00:25:10;21.90;44.90
62809;DHT22;48848;39.002;-94.584;2022-07-04T00:27:36;21.90;45.00
62809;DHT22;48848;39.002;-94.584;2022-07-04T00:30:04;21.90;46.30
62809;DHT22;48848;39.002;-94.584;2022-07-04T00:32:30;21.80;45.10
62809;DHT22;48848;39.002;-94.584;2022-07-04T00:34:57;21.90;45.40
62809;DHT22;48848;39.002;-94.584;2022-07-04T00:37:23;21.90;46.60
62809;DHT22;48848;39.002;-94.584;2022-07-04T00:39:49;21.90;46.30
62809;DHT22;48848;39.002;-94.584;2022-07-04T00:42:15;21.90;46.40
62809;DHT22;48848;39.002;-94.584;2022-07-04T00:44:41;21.90;46.30
62809;DHT22;48848;39.002;-94.584;2022-07-04T00:47:08;22.00;46.20
62809;DHT22;48848;39.002;-94.584;2022-07-04T00:49:34;22.00;45.60
62809;DHT22;48848;39.002;-94.584;2022-07-04T00:52:01;21.90;45.50
62809;DHT22;48848;39.002;-94.584;2022-07-04T00:54:29;21.90;45.50
62809;DHT22;48848;39.002;-94.584;2022-07-04T00:56:57;21.90;45.30
62809;DHT22;48848;39.002;-94.584;2022-07-04T00:59:23;21.90;45.00
62809;DHT22;48848;39.002;-94.584;2022-07-04T01:01:50;21.90;44.70
62809;DHT22;48848;39.002;-94.584;2022-07-04T01:04:17;21.90;44.50
62809;DHT22;48848;39.002;-94.584;2022-07-04T01:06:43;21.90;46.60
62809;DHT22;48848;39.002;-94.584;2022-07-04T01:09:10;21.90;44.60
62809;DHT22;48848;39.002;-94.584;2022-07-04T01:11:37;21.90;44.70
62809;DHT22;48848;39.002;-94.584;2022-07-04T01:14:03;21.80;44.80
62809;DHT22;48848;39.002;-94.584;2022-07-04T01:16:32;21.80;43.80
62809;DHT22;48848;39.002;-94.584;2022-07-04T01:18:59;21.90;43.90
62809;DHT22;48848;39.002;-94.584;2022-07-04T01:21:25;21.80;43.80
62809;DHT22;48848;39.002;-94.584;2022-07-04T01:23:51;21.80;43.50
62809;DHT22;48848;39.002;-94.584;2022-07-04T01:26:18;21.80;43.30
62809;DHT22;48848;39.002;-94.584;2022-07-04T01:28:44;21.90;43.30
62809;DHT22;48848;39.002;-94.584;2022-07-04T01:31:10;21.80;43.30
62809;DHT22;48848;39.002;-94.584;2022-07-04T01:33:36;21.80;43.10
62809;DHT22;48848;39.002;-94.584;2022-07-04T01:36:03;21.80;43.00
62809;DHT22;48848;39.002;-94.584;2022-07-04T01:38:29;21.80;42.90
62809;DHT22;48848;39.002;-94.584;2022-07-04T01:40:55;21.80;42.70
62809;DHT22;48848;39.002;-94.584;2022-07-04T01:43:21;21.70;42.60
62809;DHT22;48848;39.002;-94.584;2022-07-04T01:45:47;21.70;42.50
62809;DHT22;48848;39.002;-94.584;2022-07-04T01:48:15;21.70;42.40
62809;DHT22;48848;39.002;-94.584;2022-07-04T01:50:41;21.70;42.30
62809;DHT22;48848;39.002;-94.584;2022-07-04T01:53:07;21.70;42.30
62809;DHT22;48848;39.002;-94.584;2022-07-04T01:55:34;21.70;42.30
62809;DHT22;48848;39.002;-94.584;2022-07-04T01:58:00;21.60;42.80
62809;DHT22;48848;39.002;-94.584;2022-07-04T02:00:27;21.70;46.40
62809;DHT22;48848;39.002;-94.584;2022-07-04T02:03:11;21.70;47.10
62809;DHT22;48848;39.002;-94.584;2022-07-04T02:05:38;21.80;47.00
62809;DHT22;48848;39.002;-94.584;2022-07-04T02:08:05;21.90;46.80
62809;DHT22;48848;39.002;-94.584;2022-07-04T02:10:31;22.00;47.10
62809;DHT22;48848;39.002;-94.584;2022-07-04T02:12:58;22.00;45.70
62809;DHT22;48848;39.002;-94.584;2022-07-04T02:15:28;22.00;44.90
62809;DHT22;48848;39.002;-94.584;2022-07-04T02:17:56;22.00;44.60
62809;DHT22;48848;39.002;-94.584;2022-07-04T02:20:23;21.90;44.60
62809;DHT22;48848;39.002;-94.584;2022-07-04T02:22:49;21.90;44.50
62809;DHT22;48848;39.002;-94.584;2022-07-04T02:25:15;21.80;44.50
62809;DHT22;48848;39.002;-94.584;2022-07-04T02:27:41;21.80;44.10
62809;DHT22;48848;39.002;-94.584;2022-07-04T02:30:08;21.80;43.50
62809;DHT22;48848;39.002;-94.584;2022-07-04T02:32:35;21.80;43.30
62809;DHT22;48848;39.002;-94.584;2022-07-04T02:35:02;21.70;43.00
62809;DHT22;48848;39.002;-94.584;2022-07-04T02:37:29;21.70;43.60
62809;DHT22;48848;39.002;-94.584;2022-07-04T02:39:55;21.80;47.20
62809;DHT22;48848;39.002;-94.584;2022-07-04T02:42:21;21.80;48.50
62809;DHT22;48848;39.002;-94.584;2022-07-04T02:44:47;21.90;48.60
62809;DHT22;48848;39.002;-94.584;2022-07-04T02:47:14;22.00;48.50
62809;DHT22;48848;39.002;-94.584;2022-07-04T02:49:41;22.10;48.90
62809;DHT22;48848;39.002;-94.584;2022-07-04T02:52:07;22.20;48.90
62809;DHT22;48848;39.002;-94.584;2022-07-04T02:54:33;22.20;48.60
62809;DHT22;48848;39.002;-94.584;2022-07-04T02:57:00;22.20;48.70
62809;DHT22;48848;39.002;-94.584;2022-07-04T02:59:26;22.30;48.80
62809;DHT22;48848;39.002;-94.584;2022-07-04T03:01:52;22.30;46.30
62809;DHT22;48848;39.002;-94.584;2022-07-04T03:04:18;22.30;45.60
62809;DHT22;48848;39.002;-94.584;2022-07-04T03:06:44;22.20;45.10
62809;DHT22;48848;39.002;-94.584;2022-07-04T03:09:11;22.20;44.60
62809;DHT22;48848;39.002;-94.584;2022-07-04T03:11:37;22.20;44.50
62809;DHT22;48848;39.002;-94.584;2022-07-04T03:14:03;22.10;43.90
62809;DHT22;48848;39.002;-94.584;2022-07-04T03:16:29;22.10;43.90
62809;DHT22;48848;39.002;-94.584;2022-07-04T03:18:55;22.10;43.60
62809;DHT22;48848;39.002;-94.584;2022-07-04T03:21:22;22.00;43.30
62809;DHT22;48848;39.002;-94.584;2022-07-04T03:23:48;22.00;43.10
62809;DHT22;48848;39.002;-94.584;2022-07-04T03:26:27;22.00;42.90
62809;DHT22;48848;39.002;-94.584;2022-07-04T03:28:56;22.00;42.80
62809;DHT22;48848;39.002;-94.584;2022-07-04T03:31:23;22.00;42.50
62809;DHT22;48848;39.002;-94.584;2022-07-04T03:33:49;21.90;42.80
62809;DHT22;48848;39.002;-94.584;2022-07-04T03:36:16;22.00;46.00
62809;DHT22;48848;39.002;-94.584;2022-07-04T03:38:43;22.00;47.80
62809;DHT22;48848;39.002;-94.584;2022-07-04T03:41:10;22.00;47.70
62809;DHT22;48848;39.002;-94.584;2022-07-04T03:43:36;22.10;47.60
62809;DHT22;48848;39.002;-94.584;2022-07-04T03:46:03;22.10;47.30
62809;DHT22;48848;39.002;-94.584;2022-07-04T03:48:29;22.20;47.20
62809;DHT22;48848;39.002;-94.584;2022-07-04T03:50:56;22.30;46.90
62809;DHT22;48848;39.002;-94.584;2022-07-04T03:53:22;22.30;45.90
62809;DHT22;48848;39.002;-94.584;2022-07-04T03:55:49;22.20;45.10
62809;DHT22;48848;39.002;-94.584;2022-07-04T03:58:15;22.20;44.50
62809;DHT22;48848;39.002;-94.584;2022-07-04T04:00:41;22.20;43.90
62809;DHT22;48848;39.002;-94.584;2022-07-04T04:03:10;22.10;43.60
62809;DHT22;48848;39.002;-94.584;2022-07-04T04:05:56;22.10;43.40
62809;DHT22;48848;39.002;-94.584;2022-07-04T04:08:22;22.00;43.00
62809;DHT22;48848;39.002;-94.584;2022-07-04T04:10:49;22.00;43.00
62809;DHT22;48848;39.002;-94.584;2022-07-04T04:13:17;22.00;42.70
62809;DHT22;48848;39.002;-94.584;2022-07-04T04:15:43;21.90;42.50
62809;DHT22;48848;39.002;-94.584;2022-07-04T04:18:09;21.90;42.50
62809;DHT22;48848;39.002;-94.584;2022-07-04T04:20:35;21.90;42.40
62809;DHT22;48848;39.002;-94.584;2022-07-04T04:23:01;21.80;42.80
62809;DHT22;48848;39.002;-94.584;2022-07-04T04:25:28;21.90;46.10
62809;DHT22;48848;39.002;-94.584;2022-07-04T04:27:54;21.90;47.40
62809;DHT22;48848;39.002;-94.584;2022-07-04T04:30:20;22.00;47.10
62809;DHT22;48848;39.002;-94.584;2022-07-04T04:32:46;22.00;47.60
62809;DHT22;48848;39.002;-94.584;2022-07-04T04:35:12;22.10;47.80
62809;DHT22;48848;39.002;-94.584;2022-07-04T04:37:38;22.10;47.00
62809;DHT22;48848;39.002;-94.584;2022-07-04T04:40:05;22.20;47.40
62809;DHT22;48848;39.002;-94.584;2022-07-04T04:42:32;22.20;46.90
62809;DHT22;48848;39.002;-94.584;2022-07-04T04:44:58;22.30;47.00
62809;DHT22;48848;39.002;-94.584;2022-07-04T04:47:24;22.40;46.90
62809;DHT22;48848;39.002;-94.584;2022-07-04T04:49:50;22.40;47.10
62809;DHT22;48848;39.002;-94.584;2022-07-04T04:52:17;22.40;47.10
62809;DHT22;48848;39.002;-94.584;2022-07-04T04:54:43;22.50;47.40
62809;DHT22;48848;39.002;-94.584;2022-07-04T04:57:09;22.50;47.10
62809;DHT22;48848;39.002;-94.584;2022-07-04T04:59:35;22.60;47.10
62809;DHT22;48848;39.002;-94.584;2022-07-04T05:02:01;22.60;47.00
62809;DHT22;48848;39.002;-94.584;2022-07-04T05:04:28;22.60;46.60
62809;DHT22;48848;39.002;-94.584;2022-07-04T05:06:54;22.60;45.00
62809;DHT22;48848;39.002;-94.584;2022-07-04T05:09:21;22.50;44.50
62809;DHT22;48848;39.002;-94.584;2022-07-04T05:11:48;22.40;43.80
62809;DHT22;48848;39.002;-94.584;2022-07-04T05:14:14;22.40;43.70
62809;DHT22;48848;39.002;-94.584;2022-07-04T05:16:41;22.40;43.40
62809;DHT22;48848;39.002;-94.584;2022-07-04T05:19:07;22.30;43.00
62809;DHT22;48848;39.002;-94.584;2022-07-04T05:21:33;22.20;42.80
62809;DHT22;48848;39.002;-94.584;2022-07-04T05:23:59;22.30;44.00
62809;DHT22;48848;39.002;-94.584;2022-07-04T05:26:26;22.30;46.60
62809;DHT22;48848;39.002;-94.584;2022-07-04T05:28:52;22.30;47.80
62809;DHT22;48848;39.002;-94.584;2022-07-04T05:31:19;22.30;48.30
62809;DHT22;48848;39.002;-94.584;2022-07-04T05:33:45;22.40;48.00
62809;DHT22;48848;39.002;-94.584;2022-07-04T05:36:11;22.40;47.30
62809;DHT22;48848;39.002;-94.584;2022-07-04T05:38:37;22.50;47.50
62809;DHT22;48848;39.002;-94.584;2022-07-04T05:41:03;22.60;47.50
62809;DHT22;48848;39.002;-94.584;2022-07-04T05:43:29;22.60;47.60
62809;DHT22;48848;39.002;-94.584;2022-07-04T05:45:55;22.70;48.10
62809;DHT22;48848;39.002;-94.584;2022-07-04T05:48:22;22.70;48.30
62809;DHT22;48848;39.002;-94.584;2022-07-04T05:50:48;22.80;48.30
62809;DHT22;48848;39.002;-94.584;2022-07-04T05:53:14;22.80;48.00
62809;DHT22;48848;39.002;-94.584;2022-07-04T05:55:40;22.80;46.90
62809;DHT22;48848;39.002;-94.584;2022-07-04T05:58:06;22.70;45.60
62809;DHT22;48848;39.002;-94.584;2022-07-04T06:00:32;22.70;45.30
62809;DHT22;48848;39.002;-94.584;2022-07-04T06:02:59;22.60;44.60
62809;DHT22;48848;39.002;-94.584;2022-07-04T06:05:25;22.60;44.30
62809;DHT22;48848;39.002;-94.584;2022-07-04T06:07:51;22.60;44.00
62809;DHT22;48848;39.002;-94.584;2022-07-04T06:10:17;22.50;43.80
62809;DHT22;48848;39.002;-94.584;2022-07-04T06:12:44;22.50;43.60
62809;DHT22;48848;39.002;-94.584;2022-07-04T06:15:10;22.40;43.00
62809;DHT22;48848;39.002;-94.584;2022-07-04T06:17:37;22.30;42.80
62809;DHT22;48848;39.002;-94.584;2022-07-04T06:20:03;22.30;42.60
62809;DHT22;48848;39.002;-94.584;2022-07-04T06:22:43;22.20;45.00
62809;DHT22;48848;39.002;-94.584;2022-07-04T06:25:14;22.20;47.60
62809;DHT22;48848;39.002;-94.584;2022-07-04T06:27:44;22.30;47.60
62809;DHT22;48848;39.002;-94.584;2022-07-04T06:30:12;22.30;47.40
62809;DHT22;48848;39.002;-94.584;2022-07-04T06:32:52;22.40;47.30
62809;DHT22;48848;39.002;-94.584;2022-07-04T06:35:30;22.50;47.00
62809;DHT22;48848;39.002;-94.584;2022-07-04T06:38:14;22.50;46.90
62809;DHT22;48848;39.002;-94.584;2022-07-04T06:40:41;22.60;46.70
62809;DHT22;48848;39.002;-94.584;2022-07-04T06:43:07;22.50;45.60
62809;DHT22;48848;39.002;-94.584;2022-07-04T06:45:34;22.50;44.80
62809;DHT22;48848;39.002;-94.584;2022-07-04T06:48:01;22.40;44.40
62809;DHT22;48848;39.002;-94.584;2022-07-04T06:50:28;22.30;43.90
62809;DHT22;48848;39.002;-94.584;2022-07-04T06:52:54;22.30;43.80
62809;DHT22;48848;39.002;-94.584;2022-07-04T06:55:20;22.20;43.40
62809;DHT22;48848;39.002;-94.584;2022-07-04T06:58:01;22.20;43.10
62809;DHT22;48848;39.002;-94.584;2022-07-04T07:00:28;22.10;42.70
62809;DHT22;48848;39.002;-94.584;2022-07-04T07:03:00;22.10;42.70
62809;DHT22;48848;39.002;-94.584;2022-07-04T07:05:28;22.00;42.40
62809;DHT22;48848;39.002;-94.584;2022-07-04T07:07:55;22.00;42.40
62809;DHT22;48848;39.002;-94.584;2022-07-04T07:10:21;21.90;43.80
62809;DHT22;48848;39.002;-94.584;2022-07-04T07:12:47;22.00;46.00
62809;DHT22;48848;39.002;-94.584;2022-07-04T07:15:14;22.00;45.40
62809;DHT22;48848;39.002;-94.584;2022-07-04T07:17:42;22.10;45.10
62809;DHT22;48848;39.002;-94.584;2022-07-04T07:20:09;22.10;44.60
62809;DHT22;48848;39.002;-94.584;2022-07-04T07:22:35;22.20;44.60
62809;DHT22;48848;39.002;-94.584;2022-07-04T07:25:02;22.20;44.60
62809;DHT22;48848;39.002;-94.584;2022-07-04T07:27:28;22.30;44.80
62809;DHT22;48848;39.002;-94.584;2022-07-04T07:29:54;22.30;45.20
62809;DHT22;48848;39.002;-94.584;2022-07-04T07:32:20;22.40;45.30
62809;DHT22;48848;39.002;-94.584;2022-07-04T07:34:47;22.40;45.30
62809;DHT22;48848;39.002;-94.584;2022-07-04T07:37:13;22.40;45.60
62809;DHT22;48848;39.002;-94.584;2022-07-04T07:39:39;22.50;45.70
62809;DHT22;48848;39.002;-94.584;2022-07-04T07:42:05;22.50;46.00
62809;DHT22;48848;39.002;-94.584;2022-07-04T07:44:31;22.50;46.10
62809;DHT22;48848;39.002;-94.584;2022-07-04T07:46:57;22.60;46.10
62809;DHT22;48848;39.002;-94.584;2022-07-04T07:49:24;22.60;46.20
62809;DHT22;48848;39.002;-94.584;2022-07-04T07:51:50;22.60;46.20
62809;DHT22;48848;39.002;-94.584;2022-07-04T07:54:16;22.70;46.30
62809;DHT22;48848;39.002;-94.584;2022-07-04T07:56:43;22.70;46.40
62809;DHT22;48848;39.002;-94.584;2022-07-04T07:59:09;22.70;46.50
62809;DHT22;48848;39.002;-94.584;2022-07-04T08:01:35;22.70;46.60
62809;DHT22;48848;39.002;-94.584;2022-07-04T08:04:02;22.80;46.60
62809;DHT22;48848;39.002;-94.584;2022-07-04T08:06:46;22.80;46.80
62809;DHT22;48848;39.002;-94.584;2022-07-04T08:09:12;22.80;47.00
62809;DHT22;48848;39.002;-94.584;2022-07-04T08:11:41;22.80;46.90
62809;DHT22;48848;39.002;-94.584;2022-07-04T08:14:07;22.90;47.30
62809;DHT22;48848;39.002;-94.584;2022-07-04T08:16:34;22.90;47.30
62809;DHT22;48848;39.002;-94.584;2022-07-04T08:19:02;22.90;47.60
62809;DHT22;48848;39.002;-94.584;2022-07-04T08:21:28;22.90;47.70
62809;DHT22;48848;39.002;-94.584;2022-07-04T08:23:54;23.00;47.80
62809;DHT22;48848;39.002;-94.584;2022-07-04T08:26:21;23.00;45.80
62809;DHT22;48848;39.002;-94.584;2022-07-04T08:28:47;22.90;45.30
62809;DHT22;48848;39.002;-94.584;2022-07-04T08:31:13;22.80;44.40
62809;DHT22;48848;39.002;-94.584;2022-07-04T08:33:39;22.70;44.20
62809;DHT22;48848;39.002;-94.584;2022-07-04T08:36:06;22.60;43.70
62809;DHT22;48848;39.002;-94.584;2022-07-04T08:38:32;22.60;43.40
62809;DHT22;48848;39.002;-94.584;2022-07-04T08:40:59;22.50;43.10
62809;DHT22;48848;39.002;-94.584;2022-07-04T08:43:27;22.50;43.00
62809;DHT22;48848;39.002;-94.584;2022-07-04T08:45:55;22.40;42.60
62809;DHT22;48848;39.002;-94.584;2022-07-04T08:48:24;22.30;42.50
62809;DHT22;48848;39.002;-94.584;2022-07-04T08:50:56;22.20;42.20
62809;DHT22;48848;39.002;-94.584;2022-07-04T08:53:28;22.20;42.10
62809;DHT22;48848;39.002;-94.584;2022-07-04T08:55:56;22.10;41.90
62809;DHT22;48848;39.002;-94.584;2022-07-04T08:58:45;22.10;41.80
62809;DHT22;48848;39.002;-94.584;2022-07-04T09:01:12;22.10;45.10
62809;DHT22;48848;39.002;-94.584;2022-07-04T09:03:43;22.10;47.50
62809;DHT22;48848;39.002;-94.584;2022-07-04T09:06:11;22.10;47.20
62809;DHT22;48848;39.002;-94.584;2022-07-04T09:08:38;22.10;46.40
62809;DHT22;48848;39.002;-94.584;2022-07-04T09:11:06;22.20;46.40
62809;DHT22;48848;39.002;-94.584;2022-07-04T09:13:33;22.20;46.40
62809;DHT22;48848;39.002;-94.584;2022-07-04T09:16:00;22.20;46.40
62809;DHT22;48848;39.002;-94.584;2022-07-04T09:18:35;22.30;46.60
62809;DHT22;48848;39.002;-94.584;2022-07-04T09:21:08;22.40;46.40
62809;DHT22;48848;39.002;-94.584;2022-07-04T09:23:40;22.40;46.40
62809;DHT22;48848;39.002;-94.584;2022-07-04T09:26:14;22.40;46.30
62809;DHT22;48848;39.002;-94.584;2022-07-04T09:28:43;22.50;46.50
62809;DHT22;48848;39.002;-94.584;2022-07-04T09:31:18;22.50;46.60
62809;DHT22;48848;39.002;-94.584;2022-07-04T09:36:20;22.50;46.40
62809;DHT22;48848;39.002;-94.584;2022-07-04T09:39:07;22.50;46.80
62809;DHT22;48848;39.002;-94.584;2022-07-04T09:41:59;22.60;47.00
62809;DHT22;48848;39.002;-94.584;2022-07-04T09:44:49;22.60;47.20
62809;DHT22;48848;39.002;-94.584;2022-07-04T09:47:28;22.70;47.30
62809;DHT22;48848;39.002;-94.584;2022-07-04T09:49:59;22.70;47.40
62809;DHT22;48848;39.002;-94.584;2022-07-04T09:52:25;22.70;47.60
62809;DHT22;48848;39.002;-94.584;2022-07-04T09:54:57;22.70;47.90
62809;DHT22;48848;39.002;-94.584;2022-07-04T09:57:25;22.70;47.60
62809;DHT22;48848;39.002;-94.584;2022-07-04T09:59:52;22.80;47.70
62809;DHT22;48848;39.002;-94.584;2022-07-04T10:02:19;22.80;47.70
62809;DHT22;48848;39.002;-94.584;2022-07-04T10:04:50;22.80;47.80
62809;DHT22;48848;39.002;-94.584;2022-07-04T10:07:35;22.80;47.90
62809;DHT22;48848;39.002;-94.584;2022-07-04T10:10:34;22.80;47.80
62809;DHT22;48848;39.002;-94.584;2022-07-04T10:13:06;22.90;47.80
62809;DHT22;48848;39.002;-94.584;2022-07-04T10:15:35;22.90;48.10
62809;DHT22;48848;39.002;-94.584;2022-07-04T10:18:03;22.90;48.10
62809;DHT22;48848;39.002;-94.584;2022-07-04T10:20:30;23.00;48.20
62809;DHT22;48848;39.002;-94.584;2022-07-04T10:22:57;23.00;48.30
62809;DHT22;48848;39.002;-94.584;2022-07-04T10:25:23;23.00;48.30
62809;DHT22;48848;39.002;-94.584;2022-07-04T10:27:49;23.00;48.30
62809;DHT22;48848;39.002;-94.584;2022-07-04T10:30:23;23.00;48.40
62809;DHT22;48848;39.002;-94.584;2022-07-04T10:32:50;23.00;48.70
62809;DHT22;48848;39.002;-94.584;2022-07-04T10:38:17;23.00;49.30
62809;DHT22;48848;39.002;-94.584;2022-07-04T10:46:31;23.10;48.50
62809;DHT22;48848;39.002;-94.584;2022-07-04T10:49:27;23.10;48.70
62809;DHT22;48848;39.002;-94.584;2022-07-04T10:51:53;23.10;48.90
62809;DHT22;48848;39.002;-94.584;2022-07-04T10:56:55;23.20;48.60
62809;DHT22;48848;39.002;-94.584;2022-07-04T10:59:23;23.20;48.80
62809;DHT22;48848;39.002;-94.584;2022-07-04T11:04:56;23.30;48.70
62809;DHT22;48848;39.002;-94.584;2022-07-04T11:18:00;23.30;48.60
62809;DHT22;48848;39.002;-94.584;2022-07-04T11:20:30;23.30;48.90
62809;DHT22;48848;39.002;-94.584;2022-07-04T11:23:10;23.30;49.00
62809;DHT22;48848;39.002;-94.584;2022-07-04T11:25:40;23.30;49.30
62809;DHT22;48848;39.002;-94.584;2022-07-04T11:28:26;23.30;46.60
62809;DHT22;48848;39.002;-94.584;2022-07-04T11:30:56;23.30;45.90
62809;DHT22;48848;39.002;-94.584;2022-07-04T11:33:26;23.10;45.30
62809;DHT22;48848;39.002;-94.584;2022-07-04T11:36:18;23.00;44.70
62809;DHT22;48848;39.002;-94.584;2022-07-04T11:39:02;22.90;44.20
62809;DHT22;48848;39.002;-94.584;2022-07-04T11:41:34;22.80;43.90
62809;DHT22;48848;39.002;-94.584;2022-07-04T11:44:21;22.70;43.30
62809;DHT22;48848;39.002;-94.584;2022-07-04T11:50:00;22.60;42.90
62809;DHT22;48848;39.002;-94.584;2022-07-04T11:52:31;22.50;42.70
62809;DHT22;48848;39.002;-94.584;2022-07-04T11:55:05;22.50;42.50
62809;DHT22;48848;39.002;-94.584;2022-07-04T11:57:39;22.40;42.40
62809;DHT22;48848;39.002;-94.584;2022-07-04T12:00:09;22.30;42.40
62809;DHT22;48848;39.002;-94.584;2022-07-04T12:02:38;22.30;47.40
62809;DHT22;48848;39.002;-94.584;2022-07-04T12:05:10;22.30;47.80
62809;DHT22;48848;39.002;-94.584;2022-07-04T12:07:39;22.30;47.50
62809;DHT22;48848;39.002;-94.584;2022-07-04T12:10:13;22.40;46.80
62809;DHT22;48848;39.002;-94.584;2022-07-04T12:13:06;22.40;46.60
62809;DHT22;48848;39.002;-94.584;2022-07-04T12:15:42;22.50;46.90
62809;DHT22;48848;39.002;-94.584;2022-07-04T12:18:19;22.50;47.10
62809;DHT22;48848;39.002;-94.584;2022-07-04T12:20:47;22.50;47.20
62809;DHT22;48848;39.002;-94.584;2022-07-04T12:23:14;22.60;47.30
62809;DHT22;48848;39.002;-94.584;2022-07-04T12:25:43;22.60;47.30
62809;DHT22;48848;39.002;-94.584;2022-07-04T12:28:12;22.60;47.20
62809;DHT22;48848;39.002;-94.584;2022-07-04T12:30:56;22.70;47.40
62809;DHT22;48848;39.002;-94.584;2022-07-04T12:33:27;22.70;47.50
62809;DHT22;48848;39.002;-94.584;2022-07-04T12:36:02;22.70;47.70
62809;DHT22;48848;39.002;-94.584;2022-07-04T12:40:59;22.80;47.70
62809;DHT22;48848;39.002;-94.584;2022-07-04T12:43:47;22.80;47.90
62809;DHT22;48848;39.002;-94.584;2022-07-04T12:46:31;22.80;47.90
62809;DHT22;48848;39.002;-94.584;2022-07-04T12:48:59;22.90;48.00
62809;DHT22;48848;39.002;-94.584;2022-07-04T12:51:33;22.90;48.00
62809;DHT22;48848;39.002;-94.584;2022-07-04T12:54:08;22.90;48.20
62809;DHT22;48848;39.002;-94.584;2022-07-04T12:56:40;23.00;48.50
62809;DHT22;48848;39.002;-94.584;2022-07-04T12:59:13;23.00;48.50
62809;DHT22;48848;39.002;-94.584;2022-07-04T13:01:42;23.00;48.80
62809;DHT22;48848;39.002;-94.584;2022-07-04T13:04:09;23.00;48.60
62809;DHT22;48848;39.002;-94.584;2022-07-04T13:06:35;23.00;48.60
62809;DHT22;48848;39.002;-94.584;2022-07-04T13:09:04;23.10;48.80
62809;DHT22;48848;39.002;-94.584;2022-07-04T13:11:30;23.10;48.70
62809;DHT22;48848;39.002;-94.584;2022-07-04T13:14:15;23.10;48.70
62809;DHT22;48848;39.002;-94.584;2022-07-04T13:16:41;23.10;48.60
62809;DHT22;48848;39.002;-94.584;2022-07-04T13:19:07;23.10;49.00
62809;DHT22;48848;39.002;-94.584;2022-07-04T13:21:33;23.10;49.00
62809;DHT22;48848;39.002;-94.584;2022-07-04T13:23:59;23.20;49.50
62809;DHT22;48848;39.002;-94.584;2022-07-04T13:26:26;23.20;49.20
62809;DHT22;48848;39.002;-94.584;2022-07-04T13:28:53;23.30;49.40
62809;DHT22;48848;39.002;-94.584;2022-07-04T13:31:19;23.30;49.30
62809;DHT22;48848;39.002;-94.584;2022-07-04T13:33:46;23.40;49.60
62809;DHT22;48848;39.002;-94.584;2022-07-04T13:36:12;23.40;49.40
62809;DHT22;48848;39.002;-94.584;2022-07-04T13:38:40;23.50;49.90
62809;DHT22;48848;39.002;-94.584;2022-07-04T13:41:07;23.50;49.70
62809;DHT22;48848;39.002;-94.584;2022-07-04T13:43:33;23.60;49.30
62809;DHT22;48848;39.002;-94.584;2022-07-04T13:45:59;23.70;49.20
62809;DHT22;48848;39.002;-94.584;2022-07-04T13:48:25;23.70;49.20
62809;DHT22;48848;39.002;-94.584;2022-07-04T13:50:51;23.80;49.20
62809;DHT22;48848;39.002;-94.584;2022-07-04T13:53:18;23.80;49.00
62809;DHT22;48848;39.002;-94.584;2022-07-04T13:55:44;23.90;49.10
62809;DHT22;48848;39.002;-94.584;2022-07-04T13:58:10;23.90;48.90
62809;DHT22;48848;39.002;-94.584;2022-07-04T14:00:37;24.00;49.40
62809;DHT22;48848;39.002;-94.584;2022-07-04T14:03:04;24.00;48.90
62809;DHT22;48848;39.002;-94.584;2022-07-04T14:05:31;24.10;49.00
62809;DHT22;48848;39.002;-94.584;2022-07-04T14:07:57;24.10;48.60
62809;DHT22;48848;39.002;-94.584;2022-07-04T14:10:24;24.10;48.80
62809;DHT22;48848;39.002;-94.584;2022-07-04T14:12:50;24.10;49.00
62809;DHT22;48848;39.002;-94.584;2022-07-04T14:15:16;24.20;48.50
62809;DHT22;48848;39.002;-94.584;2022-07-04T14:17:43;24.20;48.50
62809;DHT22;48848;39.002;-94.584;2022-07-04T14:20:10;24.30;48.50
62809;DHT22;48848;39.002;-94.584;2022-07-04T14:22:37;24.40;48.50
62809;DHT22;48848;39.002;-94.584;2022-07-04T14:25:05;24.40;48.60
62809;DHT22;48848;39.002;-94.584;2022-07-04T14:27:32;24.40;48.50
62809;DHT22;48848;39.002;-94.584;2022-07-04T14:29:58;24.40;48.70
62809;DHT22;48848;39.002;-94.584;2022-07-04T14:32:24;24.50;48.60
62809;DHT22;48848;39.002;-94.584;2022-07-04T14:34:51;24.50;48.90
62809;DHT22;48848;39.002;-94.584;2022-07-04T14:37:17;24.50;49.40
62809;DHT22;48848;39.002;-94.584;2022-07-04T14:39:43;24.60;49.20
62809;DHT22;48848;39.002;-94.584;2022-07-04T14:42:09;24.60;49.50
62809;DHT22;48848;39.002;-94.584;2022-07-04T14:44:36;24.70;49.20
62809;DHT22;48848;39.002;-94.584;2022-07-04T14:47:05;24.70;49.10
62809;DHT22;48848;39.002;-94.584;2022-07-04T14:49:32;24.70;49.00
62809;DHT22;48848;39.002;-94.584;2022-07-04T14:51:58;24.80;48.90
62809;DHT22;48848;39.002;-94.584;2022-07-04T14:54:25;24.90;49.00
62809;DHT22;48848;39.002;-94.584;2022-07-04T14:56:51;25.00;49.40
62809;DHT22;48848;39.002;-94.584;2022-07-04T14:59:18;25.00;49.10
62809;DHT22;48848;39.002;-94.584;2022-07-04T15:01:45;25.10;49.10
62809;DHT22;48848;39.002;-94.584;2022-07-04T15:04:11;25.10;49.00
62809;DHT22;48848;39.002;-94.584;2022-07-04T15:06:37;25.20;48.90
62809;DHT22;48848;39.002;-94.584;2022-07-04T15:09:04;25.30;48.80
62809;DHT22;48848;39.002;-94.584;2022-07-04T15:11:34;25.30;48.70
62809;DHT22;48848;39.002;-94.584;2022-07-04T15:14:00;25.40;48.90
62809;DHT22;48848;39.002;-94.584;2022-07-04T15:16:26;25.50;48.90
62809;DHT22;48848;39.002;-94.584;2022-07-04T15:18:53;25.50;48.60
62809;DHT22;48848;39.002;-94.584;2022-07-04T15:21:20;25.60;48.80
62809;DHT22;48848;39.002;-94.584;2022-07-04T15:24:05;25.70;48.80
62809;DHT22;48848;39.002;-94.584;2022-07-04T15:26:38;25.70;48.80
62809;DHT22;48848;39.002;-94.584;2022-07-04T15:29:04;25.80;48.50
62809;DHT22;48848;39.002;-94.584;2022-07-04T15:31:31;25.80;48.30
62809;DHT22;48848;39.002;-94.584;2022-07-04T15:33:57;25.80;48.40
62809;DHT22;48848;39.002;-94.584;2022-07-04T15:36:23;26.00;48.40
62809;DHT22;48848;39.002;-94.584;2022-07-04T15:38:49;26.00;48.50
62809;DHT22;48848;39.002;-94.584;2022-07-04T15:41:15;26.00;48.40
62809;DHT22;48848;39.002;-94.584;2022-07-04T15:43:45;26.10;48.70